Terminal Aerodrome Forecast
Issued by NWS Paducah, KY

Home | Current Version | Previous Version | Text Only | Print | Product List | Glossary On
Versions: 1 2 3 4 5 6 7 8 9 10 11 12 13
000
FTUS43 KPAH 152300
TAFPAH
TAF
KPAH 152320Z 1600/1624 23004KT P6SM SCT060
     FM160300 28005KT P6SM VCSH SCT017 OVC050
     FM160530 34006KT P6SM SCT008 OVC021
      TEMPO 1607/1611 4SM BR BKN008
     FM161500 01007KT P6SM SCT015
     FM162300 02005KT P6SM SKC=

USA.gov is the U.S. government's official web portal to all federal, state and local government web resources and services.